sensor_id;sensor_type;location;lat;lon;timestamp;P1;durP1;ratioP1;P2;durP2;ratioP2
52742;SDS011;55583;53.012;6.556;2022-12-01T00:02:07;134.45;;;48.47;;
52742;SDS011;55583;53.012;6.556;2022-12-01T00:04:32;135.68;;;46.72;;
52742;SDS011;55583;53.012;6.556;2022-12-01T00:06:58;132.93;;;45.72;;
52742;SDS011;55583;53.012;6.556;2022-12-01T00:09:23;139.95;;;48.83;;
52742;SDS011;55583;53.012;6.556;2022-12-01T00:12:07;130.85;;;48.80;;
52742;SDS011;55583;53.012;6.556;2022-12-01T00:14:33;147.35;;;49.65;;
52742;SDS011;55583;53.012;6.556;2022-12-01T00:16:59;122.43;;;47.13;;
52742;SDS011;55583;53.012;6.556;2022-12-01T00:19:25;133.57;;;48.85;;
52742;SDS011;55583;53.012;6.556;2022-12-01T00:21:51;125.40;;;46.97;;
52742;SDS011;55583;53.012;6.556;2022-12-01T00:24:17;130.75;;;48.10;;
52742;SDS011;55583;53.012;6.556;2022-12-01T00:26:42;117.93;;;43.47;;
52742;SDS011;55583;53.012;6.556;2022-12-01T00:29:08;125.28;;;48.03;;
52742;SDS011;55583;53.012;6.556;2022-12-01T00:31:34;118.88;;;46.05;;
52742;SDS011;55583;53.012;6.556;2022-12-01T00:34:00;125.13;;;47.28;;
52742;SDS011;55583;53.012;6.556;2022-12-01T00:36:26;121.88;;;47.88;;
52742;SDS011;55583;53.012;6.556;2022-12-01T00:38:52;133.55;;;48.17;;
52742;SDS011;55583;53.012;6.556;2022-12-01T00:41:19;123.88;;;46.13;;
52742;SDS011;55583;53.012;6.556;2022-12-01T00:43:46;130.45;;;45.60;;
52742;SDS011;55583;53.012;6.556;2022-12-01T00:46:11;119.30;;;45.88;;
52742;SDS011;55583;53.012;6.556;2022-12-01T00:48:37;125.55;;;46.83;;
52742;SDS011;55583;53.012;6.556;2022-12-01T00:51:03;123.22;;;48.78;;
52742;SDS011;55583;53.012;6.556;2022-12-01T00:53:28;125.28;;;46.55;;
52742;SDS011;55583;53.012;6.556;2022-12-01T00:55:54;118.65;;;45.78;;
52742;SDS011;55583;53.012;6.556;2022-12-01T00:58:20;126.82;;;47.97;;
52742;SDS011;55583;53.012;6.556;2022-12-01T01:00:47;123.20;;;47.78;;
52742;SDS011;55583;53.012;6.556;2022-12-01T01:03:12;139.80;;;51.22;;
52742;SDS011;55583;53.012;6.556;2022-12-01T01:05:38;138.52;;;50.67;;
52742;SDS011;55583;53.012;6.556;2022-12-01T01:08:09;129.10;;;50.10;;
52742;SDS011;55583;53.012;6.556;2022-12-01T01:10:39;132.55;;;48.88;;
52742;SDS011;55583;53.012;6.556;2022-12-01T01:13:05;122.40;;;47.42;;
52742;SDS011;55583;53.012;6.556;2022-12-01T01:15:31;128.18;;;48.42;;
52742;SDS011;55583;53.012;6.556;2022-12-01T01:17:57;129.23;;;47.45;;
52742;SDS011;55583;53.012;6.556;2022-12-01T01:20:23;122.82;;;47.33;;
52742;SDS011;55583;53.012;6.556;2022-12-01T01:22:48;130.60;;;47.75;;
52742;SDS011;55583;53.012;6.556;2022-12-01T01:25:14;124.53;;;49.25;;
52742;SDS011;55583;53.012;6.556;2022-12-01T01:27:40;129.27;;;48.95;;
52742;SDS011;55583;53.012;6.556;2022-12-01T01:30:05;129.02;;;49.22;;
52742;SDS011;55583;53.012;6.556;2022-12-01T01:32:31;129.98;;;49.53;;
52742;SDS011;55583;53.012;6.556;2022-12-01T01:34:57;124.60;;;47.47;;
52742;SDS011;55583;53.012;6.556;2022-12-01T01:37:23;134.68;;;49.20;;
52742;SDS011;55583;53.012;6.556;2022-12-01T01:39:51;132.25;;;48.95;;
52742;SDS011;55583;53.012;6.556;2022-12-01T01:42:17;118.80;;;47.30;;
52742;SDS011;55583;53.012;6.556;2022-12-01T01:47:49;131.10;;;49.58;;
52742;SDS011;55583;53.012;6.556;2022-12-01T01:50:19;133.25;;;49.30;;
52742;SDS011;55583;53.012;6.556;2022-12-01T01:52:47;125.25;;;48.03;;
52742;SDS011;55583;53.012;6.556;2022-12-01T01:55:16;131.05;;;47.92;;
52742;SDS011;55583;53.012;6.556;2022-12-01T01:57:42;125.30;;;48.53;;
52742;SDS011;55583;53.012;6.556;2022-12-01T02:00:10;125.03;;;48.50;;
52742;SDS011;55583;53.012;6.556;2022-12-01T02:02:40;125.63;;;48.55;;
52742;SDS011;55583;53.012;6.556;2022-12-01T02:05:08;130.95;;;48.92;;
52742;SDS011;55583;53.012;6.556;2022-12-01T02:07:38;128.10;;;48.83;;
52742;SDS011;55583;53.012;6.556;2022-12-01T02:10:06;133.88;;;49.70;;
52742;SDS011;55583;53.012;6.556;2022-12-01T02:21:01;136.07;;;49.13;;
52742;SDS011;55583;53.012;6.556;2022-12-01T02:26:07;131.68;;;50.47;;
52742;SDS011;55583;53.012;6.556;2022-12-01T02:31:46;127.07;;;50.63;;
52742;SDS011;55583;53.012;6.556;2022-12-01T02:42:33;128.70;;;50.63;;
52742;SDS011;55583;53.012;6.556;2022-12-01T02:47:52;127.00;;;48.97;;
52742;SDS011;55583;53.012;6.556;2022-12-01T02:50:22;125.93;;;48.58;;
52742;SDS011;55583;53.012;6.556;2022-12-01T02:52:51;132.93;;;50.75;;
52742;SDS011;55583;53.012;6.556;2022-12-01T02:55:18;123.70;;;51.05;;
52742;SDS011;55583;53.012;6.556;2022-12-01T02:57:44;131.18;;;51.95;;
52742;SDS011;55583;53.012;6.556;2022-12-01T03:00:09;116.65;;;48.88;;
52742;SDS011;55583;53.012;6.556;2022-12-01T03:05:25;125.25;;;51.65;;
52742;SDS011;55583;53.012;6.556;2022-12-01T03:08:09;127.40;;;50.88;;
52742;SDS011;55583;53.012;6.556;2022-12-01T03:10:47;132.52;;;51.20;;
52742;SDS011;55583;53.012;6.556;2022-12-01T03:19:33;130.13;;;49.78;;
52742;SDS011;55583;53.012;6.556;2022-12-01T03:22:13;129.40;;;51.58;;
52742;SDS011;55583;53.012;6.556;2022-12-01T03:24:43;135.52;;;52.70;;
52742;SDS011;55583;53.012;6.556;2022-12-01T03:27:12;145.50;;;51.92;;
52742;SDS011;55583;53.012;6.556;2022-12-01T03:29:42;131.52;;;50.15;;
52742;SDS011;55583;53.012;6.556;2022-12-01T03:32:24;134.10;;;51.17;;
52742;SDS011;55583;53.012;6.556;2022-12-01T03:35:07;143.30;;;53.58;;
52742;SDS011;55583;53.012;6.556;2022-12-01T03:37:50;133.82;;;52.00;;
52742;SDS011;55583;53.012;6.556;2022-12-01T03:40:20;135.63;;;51.63;;
52742;SDS011;55583;53.012;6.556;2022-12-01T03:43:01;138.63;;;52.40;;
52742;SDS011;55583;53.012;6.556;2022-12-01T03:48:18;154.93;;;56.10;;
52742;SDS011;55583;53.012;6.556;2022-12-01T03:53:50;146.40;;;53.28;;
52742;SDS011;55583;53.012;6.556;2022-12-01T03:56:22;130.73;;;51.40;;
52742;SDS011;55583;53.012;6.556;2022-12-01T03:58:51;152.77;;;55.00;;
52742;SDS011;55583;53.012;6.556;2022-12-01T04:01:20;155.00;;;56.05;;
52742;SDS011;55583;53.012;6.556;2022-12-01T04:03:46;146.30;;;52.72;;
52742;SDS011;55583;53.012;6.556;2022-12-01T04:06:12;145.32;;;51.10;;
52742;SDS011;55583;53.012;6.556;2022-12-01T04:08:38;137.93;;;53.70;;
52742;SDS011;55583;53.012;6.556;2022-12-01T04:11:04;147.65;;;54.33;;
52742;SDS011;55583;53.012;6.556;2022-12-01T04:13:50;155.27;;;54.33;;
52742;SDS011;55583;53.012;6.556;2022-12-01T04:16:16;136.95;;;53.50;;
52742;SDS011;55583;53.012;6.556;2022-12-01T04:18:41;138.63;;;53.05;;
52742;SDS011;55583;53.012;6.556;2022-12-01T04:21:07;138.23;;;52.00;;
52742;SDS011;55583;53.012;6.556;2022-12-01T04:23:33;143.70;;;52.00;;
52742;SDS011;55583;53.012;6.556;2022-12-01T04:26:17;138.73;;;52.85;;
52742;SDS011;55583;53.012;6.556;2022-12-01T04:28:43;140.38;;;54.13;;
52742;SDS011;55583;53.012;6.556;2022-12-01T04:31:08;141.45;;;51.65;;
52742;SDS011;55583;53.012;6.556;2022-12-01T04:33:34;145.85;;;52.72;;
52742;SDS011;55583;53.012;6.556;2022-12-01T04:35:59;132.75;;;53.50;;
52742;SDS011;55583;53.012;6.556;2022-12-01T04:38:26;144.80;;;52.33;;
52742;SDS011;55583;53.012;6.556;2022-12-01T04:40:53;139.68;;;53.85;;
52742;SDS011;55583;53.012;6.556;2022-12-01T04:43:19;147.75;;;51.88;;
52742;SDS011;55583;53.012;6.556;2022-12-01T04:45:44;133.32;;;51.17;;
52742;SDS011;55583;53.012;6.556;2022-12-01T04:48:10;144.27;;;51.47;;
52742;SDS011;55583;53.012;6.556;2022-12-01T04:50:35;145.48;;;54.10;;
52742;SDS011;55583;53.012;6.556;2022-12-01T04:53:01;156.40;;;54.67;;
52742;SDS011;55583;53.012;6.556;2022-12-01T04:55:28;134.70;;;51.50;;
52742;SDS011;55583;53.012;6.556;2022-12-01T04:57:53;133.73;;;52.75;;
52742;SDS011;55583;53.012;6.556;2022-12-01T05:00:19;149.07;;;53.00;;
52742;SDS011;55583;53.012;6.556;2022-12-01T05:02:44;133.65;;;50.88;;
52742;SDS011;55583;53.012;6.556;2022-12-01T05:05:10;155.40;;;53.75;;
52742;SDS011;55583;53.012;6.556;2022-12-01T05:07:36;154.52;;;54.40;;
52742;SDS011;55583;53.012;6.556;2022-12-01T05:10:02;141.43;;;51.90;;
52742;SDS011;55583;53.012;6.556;2022-12-01T05:12:28;138.80;;;51.97;;
52742;SDS011;55583;53.012;6.556;2022-12-01T05:14:54;142.75;;;53.40;;
52742;SDS011;55583;53.012;6.556;2022-12-01T05:17:20;143.82;;;53.70;;
52742;SDS011;55583;53.012;6.556;2022-12-01T05:19:45;149.73;;;54.38;;
52742;SDS011;55583;53.012;6.556;2022-12-01T05:22:29;152.00;;;54.78;;
52742;SDS011;55583;53.012;6.556;2022-12-01T05:24:55;155.32;;;56.00;;
52742;SDS011;55583;53.012;6.556;2022-12-01T05:27:20;150.80;;;54.70;;
52742;SDS011;55583;53.012;6.556;2022-12-01T05:29:46;149.65;;;54.13;;
52742;SDS011;55583;53.012;6.556;2022-12-01T05:32:12;149.10;;;54.95;;
52742;SDS011;55583;53.012;6.556;2022-12-01T05:34:37;171.43;;;58.42;;
52742;SDS011;55583;53.012;6.556;2022-12-01T05:37:03;150.00;;;54.58;;
52742;SDS011;55583;53.012;6.556;2022-12-01T05:39:29;150.38;;;55.00;;
52742;SDS011;55583;53.012;6.556;2022-12-01T05:41:55;156.02;;;54.78;;
52742;SDS011;55583;53.012;6.556;2022-12-01T05:44:20;152.50;;;53.88;;
52742;SDS011;55583;53.012;6.556;2022-12-01T05:46:46;148.98;;;54.55;;
52742;SDS011;55583;53.012;6.556;2022-12-01T05:49:11;168.90;;;55.15;;
52742;SDS011;55583;53.012;6.556;2022-12-01T05:51:37;140.68;;;54.13;;
52742;SDS011;55583;53.012;6.556;2022-12-01T05:54:03;172.73;;;56.00;;
52742;SDS011;55583;53.012;6.556;2022-12-01T05:56:28;168.35;;;56.92;;
52742;SDS011;55583;53.012;6.556;2022-12-01T05:58:54;149.18;;;55.00;;
52742;SDS011;55583;53.012;6.556;2022-12-01T06:01:20;156.18;;;55.88;;
52742;SDS011;55583;53.012;6.556;2022-12-01T06:03:45;148.75;;;52.50;;
52742;SDS011;55583;53.012;6.556;2022-12-01T06:06:11;158.27;;;55.17;;
52742;SDS011;55583;53.012;6.556;2022-12-01T06:08:36;160.40;;;53.78;;
52742;SDS011;55583;53.012;6.556;2022-12-01T06:11:02;164.25;;;58.13;;
52742;SDS011;55583;53.012;6.556;2022-12-01T06:13:28;154.90;;;54.65;;
52742;SDS011;55583;53.012;6.556;2022-12-01T06:18:28;162.90;;;57.13;;
52742;SDS011;55583;53.012;6.556;2022-12-01T06:20:55;146.77;;;51.25;;
52742;SDS011;55583;53.012;6.556;2022-12-01T06:23:21;153.45;;;53.45;;
52742;SDS011;55583;53.012;6.556;2022-12-01T06:25:47;150.45;;;53.15;;
52742;SDS011;55583;53.012;6.556;2022-12-01T06:28:13;170.32;;;55.47;;
52742;SDS011;55583;53.012;6.556;2022-12-01T06:30:39;165.48;;;53.95;;
52742;SDS011;55583;53.012;6.556;2022-12-01T06:33:05;170.52;;;55.58;;
52742;SDS011;55583;53.012;6.556;2022-12-01T06:35:31;154.93;;;51.28;;
52742;SDS011;55583;53.012;6.556;2022-12-01T06:37:56;174.40;;;55.05;;
52742;SDS011;55583;53.012;6.556;2022-12-01T06:40:22;180.15;;;55.55;;
52742;SDS011;55583;53.012;6.556;2022-12-01T06:42:48;178.40;;;56.20;;
52742;SDS011;55583;53.012;6.556;2022-12-01T06:45:13;180.65;;;56.70;;
52742;SDS011;55583;53.012;6.556;2022-12-01T06:47:39;173.25;;;55.60;;
52742;SDS011;55583;53.012;6.556;2022-12-01T06:50:05;186.77;;;54.95;;
52742;SDS011;55583;53.012;6.556;2022-12-01T06:52:34;188.80;;;56.20;;
52742;SDS011;55583;53.012;6.556;2022-12-01T06:55:00;215.48;;;60.25;;
52742;SDS011;55583;53.012;6.556;2022-12-01T06:57:28;175.93;;;55.40;;
52742;SDS011;55583;53.012;6.556;2022-12-01T06:59:54;192.75;;;56.38;;
52742;SDS011;55583;53.012;6.556;2022-12-01T07:02:19;180.13;;;54.42;;
52742;SDS011;55583;53.012;6.556;2022-12-01T07:04:45;219.70;;;60.55;;
52742;SDS011;55583;53.012;6.556;2022-12-01T07:07:11;189.95;;;55.97;;
52742;SDS011;55583;53.012;6.556;2022-12-01T07:09:36;166.02;;;53.40;;
52742;SDS011;55583;53.012;6.556;2022-12-01T07:12:02;205.80;;;56.53;;
52742;SDS011;55583;53.012;6.556;2022-12-01T07:14:28;183.80;;;54.80;;
52742;SDS011;55583;53.012;6.556;2022-12-01T07:16:55;179.70;;;55.75;;
52742;SDS011;55583;53.012;6.556;2022-12-01T07:19:21;157.80;;;53.45;;
52742;SDS011;55583;53.012;6.556;2022-12-01T07:21:47;183.45;;;55.92;;
52742;SDS011;55583;53.012;6.556;2022-12-01T07:24:13;182.10;;;54.35;;
52742;SDS011;55583;53.012;6.556;2022-12-01T07:26:39;171.07;;;55.38;;
52742;SDS011;55583;53.012;6.556;2022-12-01T07:29:05;166.13;;;54.70;;
52742;SDS011;55583;53.012;6.556;2022-12-01T07:31:31;173.77;;;55.65;;
52742;SDS011;55583;53.012;6.556;2022-12-01T07:33:57;184.07;;;55.97;;
52742;SDS011;55583;53.012;6.556;2022-12-01T07:36:22;172.55;;;54.25;;
52742;SDS011;55583;53.012;6.556;2022-12-01T07:38:48;170.32;;;58.35;;
52742;SDS011;55583;53.012;6.556;2022-12-01T07:41:15;171.13;;;54.33;;
52742;SDS011;55583;53.012;6.556;2022-12-01T07:43:43;188.93;;;54.65;;
52742;SDS011;55583;53.012;6.556;2022-12-01T07:46:10;161.85;;;53.17;;
52742;SDS011;55583;53.012;6.556;2022-12-01T07:48:38;165.05;;;54.08;;
52742;SDS011;55583;53.012;6.556;2022-12-01T07:51:05;186.48;;;59.20;;
52742;SDS011;55583;53.012;6.556;2022-12-01T07:53:31;194.23;;;58.58;;
52742;SDS011;55583;53.012;6.556;2022-12-01T07:55:57;175.18;;;55.22;;
52742;SDS011;55583;53.012;6.556;2022-12-01T07:58:23;159.50;;;54.30;;
52742;SDS011;55583;53.012;6.556;2022-12-01T08:00:49;174.23;;;54.50;;
52742;SDS011;55583;53.012;6.556;2022-12-01T08:03:16;180.35;;;53.60;;
52742;SDS011;55583;53.012;6.556;2022-12-01T08:05:42;177.45;;;55.15;;
52742;SDS011;55583;53.012;6.556;2022-12-01T08:08:08;188.27;;;54.70;;
52742;SDS011;55583;53.012;6.556;2022-12-01T08:10:34;198.35;;;55.65;;
52742;SDS011;55583;53.012;6.556;2022-12-01T08:12:59;183.88;;;54.15;;
52742;SDS011;55583;53.012;6.556;2022-12-01T08:15:25;224.75;;;57.28;;
52742;SDS011;55583;53.012;6.556;2022-12-01T08:17:51;172.80;;;54.85;;
52742;SDS011;55583;53.012;6.556;2022-12-01T08:20:17;155.10;;;49.10;;
52742;SDS011;55583;53.012;6.556;2022-12-01T08:22:42;211.05;;;56.70;;
52742;SDS011;55583;53.012;6.556;2022-12-01T08:25:08;219.05;;;57.70;;
52742;SDS011;55583;53.012;6.556;2022-12-01T08:27:34;176.18;;;54.28;;
52742;SDS011;55583;53.012;6.556;2022-12-01T08:30:00;169.20;;;52.17;;
52742;SDS011;55583;53.012;6.556;2022-12-01T08:32:26;216.52;;;54.67;;
52742;SDS011;55583;53.012;6.556;2022-12-01T08:34:53;222.65;;;57.67;;
52742;SDS011;55583;53.012;6.556;2022-12-01T08:37:19;162.35;;;49.92;;
52742;SDS011;55583;53.012;6.556;2022-12-01T08:39:45;204.30;;;54.97;;
52742;SDS011;55583;53.012;6.556;2022-12-01T08:42:10;216.20;;;55.33;;
52742;SDS011;55583;53.012;6.556;2022-12-01T08:44:36;178.18;;;54.90;;
52742;SDS011;55583;53.012;6.556;2022-12-01T08:47:02;175.77;;;53.28;;
52742;SDS011;55583;53.012;6.556;2022-12-01T08:49:28;171.60;;;53.95;;
52742;SDS011;55583;53.012;6.556;2022-12-01T08:51:53;187.57;;;57.00;;
52742;SDS011;55583;53.012;6.556;2022-12-01T08:54:20;176.35;;;53.33;;
52742;SDS011;55583;53.012;6.556;2022-12-01T08:56:46;204.50;;;55.22;;
52742;SDS011;55583;53.012;6.556;2022-12-01T08:59:11;182.02;;;54.58;;
52742;SDS011;55583;53.012;6.556;2022-12-01T09:01:37;183.10;;;50.97;;
52742;SDS011;55583;53.012;6.556;2022-12-01T09:04:19;188.48;;;55.35;;
52742;SDS011;55583;53.012;6.556;2022-12-01T09:06:46;176.65;;;54.13;;
52742;SDS011;55583;53.012;6.556;2022-12-01T09:09:14;202.25;;;55.38;;
52742;SDS011;55583;53.012;6.556;2022-12-01T09:11:45;251.95;;;60.13;;
52742;SDS011;55583;53.012;6.556;2022-12-01T09:14:12;207.15;;;57.53;;
52742;SDS011;55583;53.012;6.556;2022-12-01T09:16:41;206.95;;;55.17;;
52742;SDS011;55583;53.012;6.556;2022-12-01T09:19:08;152.30;;;52.35;;
52742;SDS011;55583;53.012;6.556;2022-12-01T09:21:34;147.90;;;49.80;;
52742;SDS011;55583;53.012;6.556;2022-12-01T09:24:04;139.98;;;47.42;;
52742;SDS011;55583;53.012;6.556;2022-12-01T09:26:31;185.02;;;54.08;;
52742;SDS011;55583;53.012;6.556;2022-12-01T09:28:59;161.10;;;50.20;;
52742;SDS011;55583;53.012;6.556;2022-12-01T09:31:27;157.77;;;51.28;;
52742;SDS011;55583;53.012;6.556;2022-12-01T09:33:54;154.95;;;51.50;;
52742;SDS011;55583;53.012;6.556;2022-12-01T09:36:25;139.90;;;47.88;;
52742;SDS011;55583;53.012;6.556;2022-12-01T09:38:52;148.90;;;48.55;;
52742;SDS011;55583;53.012;6.556;2022-12-01T09:41:29;129.57;;;48.38;;
52742;SDS011;55583;53.012;6.556;2022-12-01T09:49:17;116.63;;;42.95;;
52742;SDS011;55583;53.012;6.556;2022-12-01T09:51:47;116.53;;;44.08;;
52742;SDS011;55583;53.012;6.556;2022-12-01T09:54:14;137.68;;;49.08;;
52742;SDS011;55583;53.012;6.556;2022-12-01T09:56:44;128.05;;;48.47;;
52742;SDS011;55583;53.012;6.556;2022-12-01T09:59:17;106.80;;;41.90;;
52742;SDS011;55583;53.012;6.556;2022-12-01T10:01:48;122.05;;;44.88;;
52742;SDS011;55583;53.012;6.556;2022-12-01T10:04:37;89.85;;;40.13;;
52742;SDS011;55583;53.012;6.556;2022-12-01T10:07:16;108.72;;;41.60;;
52742;SDS011;55583;53.012;6.556;2022-12-01T10:12:34;94.47;;;38.08;;
52742;SDS011;55583;53.012;6.556;2022-12-01T10:15:13;86.50;;;38.22;;
52742;SDS011;55583;53.012;6.556;2022-12-01T10:20:51;104.10;;;41.90;;
52742;SDS011;55583;53.012;6.556;2022-12-01T10:23:43;102.50;;;40.90;;
52742;SDS011;55583;53.012;6.556;2022-12-01T10:26:31;85.15;;;37.63;;
52742;SDS011;55583;53.012;6.556;2022-12-01T10:31:47;89.43;;;40.58;;
52742;SDS011;55583;53.012;6.556;2022-12-01T10:34:23;90.53;;;39.35;;
52742;SDS011;55583;53.012;6.556;2022-12-01T10:36:49;87.38;;;37.83;;
52742;SDS011;55583;53.012;6.556;2022-12-01T10:39:28;90.28;;;37.83;;
52742;SDS011;55583;53.012;6.556;2022-12-01T10:42:06;76.75;;;36.95;;
52742;SDS011;55583;53.012;6.556;2022-12-01T10:44:56;92.93;;;39.78;;
52742;SDS011;55583;53.012;6.556;2022-12-01T10:47:26;93.78;;;37.67;;
52742;SDS011;55583;53.012;6.556;2022-12-01T10:49:53;99.75;;;40.88;;
52742;SDS011;55583;53.012;6.556;2022-12-01T10:52:40;96.78;;;41.50;;
52742;SDS011;55583;53.012;6.556;2022-12-01T10:57:47;91.05;;;39.72;;
52742;SDS011;55583;53.012;6.556;2022-12-01T11:00:27;99.72;;;41.40;;
52742;SDS011;55583;53.012;6.556;2022-12-01T11:03:01;94.38;;;41.40;;
52742;SDS011;55583;53.012;6.556;2022-12-01T11:05:28;84.53;;;39.40;;
52742;SDS011;55583;53.012;6.556;2022-12-01T11:07:57;101.43;;;41.58;;
52742;SDS011;55583;53.012;6.556;2022-12-01T11:10:24;80.70;;;37.97;;
52742;SDS011;55583;53.012;6.556;2022-12-01T11:12:56;87.38;;;41.17;;
52742;SDS011;55583;53.012;6.556;2022-12-01T11:15:32;82.82;;;39.75;;
52742;SDS011;55583;53.012;6.556;2022-12-01T11:18:04;102.72;;;42.35;;
52742;SDS011;55583;53.012;6.556;2022-12-01T11:20:45;90.75;;;38.40;;
52742;SDS011;55583;53.012;6.556;2022-12-01T11:28:37;95.85;;;39.38;;
52742;SDS011;55583;53.012;6.556;2022-12-01T11:31:34;82.10;;;38.00;;
52742;SDS011;55583;53.012;6.556;2022-12-01T11:34:01;91.80;;;40.20;;
52742;SDS011;55583;53.012;6.556;2022-12-01T11:36:34;84.00;;;36.95;;
52742;SDS011;55583;53.012;6.556;2022-12-01T11:39:06;92.45;;;38.33;;
52742;SDS011;55583;53.012;6.556;2022-12-01T11:41:55;80.28;;;37.42;;
52742;SDS011;55583;53.012;6.556;2022-12-01T11:44:23;87.20;;;39.28;;
52742;SDS011;55583;53.012;6.556;2022-12-01T11:46:50;93.38;;;39.33;;
52742;SDS011;55583;53.012;6.556;2022-12-01T11:49:17;88.47;;;38.97;;
52742;SDS011;55583;53.012;6.556;2022-12-01T11:51:48;75.68;;;36.78;;
52742;SDS011;55583;53.012;6.556;2022-12-01T11:56:44;85.43;;;37.08;;
52742;SDS011;55583;53.012;6.556;2022-12-01T12:23:51;79.80;;;33.63;;
52742;SDS011;55583;53.012;6.556;2022-12-01T12:26:57;72.03;;;33.90;;
52742;SDS011;55583;53.012;6.556;2022-12-01T12:37:52;81.03;;;34.65;;
52742;SDS011;55583;53.012;6.556;2022-12-01T12:43:42;67.95;;;30.95;;
52742;SDS011;55583;53.012;6.556;2022-12-01T12:46:21;73.25;;;33.50;;
52742;SDS011;55583;53.012;6.556;2022-12-01T12:49:25;66.10;;;29.88;;
52742;SDS011;55583;53.012;6.556;2022-12-01T12:55:09;66.68;;;32.33;;
52742;SDS011;55583;53.012;6.556;2022-12-01T12:57:18;62.60;;;30.80;;
52742;SDS011;55583;53.012;6.556;2022-12-01T12:59:53;64.95;;;31.65;;
52742;SDS011;55583;53.012;6.556;2022-12-01T13:08:26;56.90;;;29.23;;
52742;SDS011;55583;53.012;6.556;2022-12-01T13:11:25;59.10;;;30.35;;
52742;SDS011;55583;53.012;6.556;2022-12-01T13:16:48;58.90;;;29.95;;
52742;SDS011;55583;53.012;6.556;2022-12-01T13:22:12;72.43;;;33.65;;
52742;SDS011;55583;53.012;6.556;2022-12-01T13:24:40;67.30;;;34.08;;
52742;SDS011;55583;53.012;6.556;2022-12-01T13:29:35;68.65;;;33.35;;
52742;SDS011;55583;53.012;6.556;2022-12-01T13:32:03;65.78;;;32.20;;
52742;SDS011;55583;53.012;6.556;2022-12-01T13:37:05;68.90;;;33.50;;
52742;SDS011;55583;53.012;6.556;2022-12-01T13:39:33;68.75;;;33.30;;
52742;SDS011;55583;53.012;6.556;2022-12-01T13:42:02;65.78;;;31.80;;
52742;SDS011;55583;53.012;6.556;2022-12-01T13:44:42;66.68;;;31.83;;
52742;SDS011;55583;53.012;6.556;2022-12-01T13:52:15;70.18;;;33.05;;
52742;SDS011;55583;53.012;6.556;2022-12-01T13:57:39;67.07;;;31.63;;
52742;SDS011;55583;53.012;6.556;2022-12-01T14:00:35;78.40;;;33.13;;
52742;SDS011;55583;53.012;6.556;2022-12-01T14:08:30;74.55;;;34.70;;
52742;SDS011;55583;53.012;6.556;2022-12-01T14:10:59;67.13;;;33.15;;
52742;SDS011;55583;53.012;6.556;2022-12-01T14:13:29;73.35;;;34.17;;
52742;SDS011;55583;53.012;6.556;2022-12-01T14:15:57;71.25;;;34.75;;
52742;SDS011;55583;53.012;6.556;2022-12-01T14:21:01;72.97;;;34.08;;
52742;SDS011;55583;53.012;6.556;2022-12-01T14:23:31;71.60;;;33.65;;
52742;SDS011;55583;53.012;6.556;2022-12-01T14:26:21;68.63;;;34.13;;
52742;SDS011;55583;53.012;6.556;2022-12-01T14:31:19;61.00;;;32.50;;
52742;SDS011;55583;53.012;6.556;2022-12-01T14:33:53;72.93;;;36.10;;
52742;SDS011;55583;53.012;6.556;2022-12-01T14:36:31;63.28;;;31.65;;
52742;SDS011;55583;53.012;6.556;2022-12-01T14:39:04;71.30;;;34.25;;
52742;SDS011;55583;53.012;6.556;2022-12-01T14:44:22;77.78;;;35.30;;
52742;SDS011;55583;53.012;6.556;2022-12-01T14:49:23;80.68;;;38.75;;
52742;SDS011;55583;53.012;6.556;2022-12-01T14:51:53;77.15;;;36.17;;
52742;SDS011;55583;53.012;6.556;2022-12-01T14:54:24;83.68;;;37.95;;
52742;SDS011;55583;53.012;6.556;2022-12-01T14:56:55;82.53;;;39.30;;
52742;SDS011;55583;53.012;6.556;2022-12-01T14:59:25;80.20;;;37.97;;
52742;SDS011;55583;53.012;6.556;2022-12-01T15:01:52;82.13;;;38.47;;
52742;SDS011;55583;53.012;6.556;2022-12-01T15:04:21;86.43;;;41.53;;
52742;SDS011;55583;53.012;6.556;2022-12-01T15:06:51;85.22;;;42.15;;
52742;SDS011;55583;53.012;6.556;2022-12-01T15:09:19;97.87;;;44.70;;
52742;SDS011;55583;53.012;6.556;2022-12-01T15:14:23;89.85;;;42.83;;
52742;SDS011;55583;53.012;6.556;2022-12-01T15:16:49;89.97;;;44.20;;
52742;SDS011;55583;53.012;6.556;2022-12-01T15:21:48;90.53;;;44.75;;
52742;SDS011;55583;53.012;6.556;2022-12-01T15:24:25;87.32;;;42.17;;
52742;SDS011;55583;53.012;6.556;2022-12-01T15:26:53;98.75;;;45.78;;
52742;SDS011;55583;53.012;6.556;2022-12-01T15:29:30;92.65;;;42.75;;
52742;SDS011;55583;53.012;6.556;2022-12-01T15:32:00;96.78;;;46.60;;
52742;SDS011;55583;53.012;6.556;2022-12-01T15:34:30;96.05;;;43.70;;
52742;SDS011;55583;53.012;6.556;2022-12-01T15:36:59;104.55;;;47.17;;
52742;SDS011;55583;53.012;6.556;2022-12-01T15:39:30;103.35;;;48.40;;
52742;SDS011;55583;53.012;6.556;2022-12-01T15:41:58;113.45;;;50.10;;
52742;SDS011;55583;53.012;6.556;2022-12-01T15:44:26;103.60;;;48.38;;
52742;SDS011;55583;53.012;6.556;2022-12-01T15:46:54;108.88;;;47.97;;
52742;SDS011;55583;53.012;6.556;2022-12-01T15:51:51;110.72;;;50.50;;
52742;SDS011;55583;53.012;6.556;2022-12-01T15:54:19;113.32;;;49.83;;
52742;SDS011;55583;53.012;6.556;2022-12-01T15:56:52;119.70;;;51.13;;
52742;SDS011;55583;53.012;6.556;2022-12-01T16:02:04;106.72;;;47.70;;
52742;SDS011;55583;53.012;6.556;2022-12-01T16:05:05;110.22;;;50.63;;
52742;SDS011;55583;53.012;6.556;2022-12-01T16:07:41;107.18;;;50.15;;
52742;SDS011;55583;53.012;6.556;2022-12-01T16:10:23;108.32;;;48.15;;
52742;SDS011;55583;53.012;6.556;2022-12-01T16:12:52;112.53;;;48.85;;
52742;SDS011;55583;53.012;6.556;2022-12-01T16:15:56;106.60;;;50.10;;
52742;SDS011;55583;53.012;6.556;2022-12-01T16:18:30;104.82;;;48.50;;
52742;SDS011;55583;53.012;6.556;2022-12-01T16:21:03;112.20;;;51.03;;
52742;SDS011;55583;53.012;6.556;2022-12-01T16:23:29;103.75;;;47.38;;
52742;SDS011;55583;53.012;6.556;2022-12-01T16:25:56;102.38;;;48.42;;
52742;SDS011;55583;53.012;6.556;2022-12-01T16:28:24;103.65;;;48.08;;
52742;SDS011;55583;53.012;6.556;2022-12-01T16:30:58;102.60;;;47.42;;
52742;SDS011;55583;53.012;6.556;2022-12-01T16:33:24;104.20;;;48.47;;
52742;SDS011;55583;53.012;6.556;2022-12-01T16:35:51;102.10;;;48.38;;
52742;SDS011;55583;53.012;6.556;2022-12-01T16:38:19;96.43;;;47.97;;
52742;SDS011;55583;53.012;6.556;2022-12-01T16:40:50;104.28;;;49.10;;
52742;SDS011;55583;53.012;6.556;2022-12-01T16:43:18;110.35;;;49.30;;
52742;SDS011;55583;53.012;6.556;2022-12-01T16:45:45;105.32;;;50.25;;
52742;SDS011;55583;53.012;6.556;2022-12-01T16:48:17;106.43;;;50.50;;
52742;SDS011;55583;53.012;6.556;2022-12-01T16:50:44;107.82;;;48.72;;
52742;SDS011;55583;53.012;6.556;2022-12-01T16:53:13;103.93;;;48.80;;
52742;SDS011;55583;53.012;6.556;2022-12-01T16:55:43;109.05;;;51.05;;
52742;SDS011;55583;53.012;6.556;2022-12-01T16:58:21;110.60;;;52.38;;
52742;SDS011;55583;53.012;6.556;2022-12-01T17:00:47;106.85;;;51.10;;
52742;SDS011;55583;53.012;6.556;2022-12-01T17:03:16;121.75;;;54.75;;
